createdAt,value
2019-02-04T00:01:08.642Z,15.20
2019-02-04T00:17:03.979Z,14.67
2019-02-04T00:19:33.633Z,17.03
2019-02-04T00:22:02.805Z,14.57
2019-02-04T00:24:32.011Z,15.50
2019-02-04T00:27:01.179Z,13.03
2019-02-04T00:29:30.133Z,13.07
2019-02-04T00:31:58.844Z,16.87
2019-02-04T00:34:28.100Z,14.33
2019-02-04T00:36:57.401Z,14.70
2019-02-04T00:39:26.851Z,15.30
2019-02-04T00:41:55.597Z,14.40
2019-02-04T00:44:24.436Z,14.47
2019-02-04T00:46:53.173Z,14.47
2019-02-04T00:49:21.911Z,15.43
2019-02-04T00:51:50.767Z,17.57
2019-02-04T00:54:19.756Z,16.83
2019-02-04T00:56:49.832Z,14.23
2019-02-04T00:59:19.405Z,19.23
2019-02-04T01:01:48.206Z,18.53
2019-02-04T01:04:17.234Z,17.33
2019-02-04T01:06:46.470Z,18.00
2019-02-04T01:09:15.295Z,18.90
2019-02-04T01:11:44.111Z,16.87
2019-02-04T01:14:13.071Z,20.93
2019-02-04T01:16:41.917Z,22.73
2019-02-04T01:19:10.729Z,17.67
2019-02-04T01:21:39.601Z,23.57
2019-02-04T01:24:08.440Z,20.13
2019-02-04T01:26:37.543Z,20.80
2019-02-04T01:29:06.575Z,22.27
2019-02-04T01:31:35.709Z,20.90
2019-02-04T01:34:04.972Z,23.90
2019-02-04T01:36:34.212Z,25.13
2019-02-04T01:39:03.249Z,22.17
2019-02-04T01:41:33.280Z,31.77
2019-02-04T01:44:02.327Z,24.80
2019-02-04T01:46:31.362Z,24.20
2019-02-04T01:49:00.118Z,27.40
2019-02-04T01:51:29.137Z,25.43
2019-02-04T01:53:57.996Z,27.00
2019-02-04T01:56:26.762Z,22.70
2019-02-04T01:58:55.660Z,24.17
2019-02-04T02:01:25.663Z,26.20
2019-02-04T02:03:54.468Z,23.03
2019-02-04T02:06:23.767Z,31.47
2019-02-04T02:08:52.528Z,28.50
2019-02-04T02:11:21.295Z,24.67
2019-02-04T02:13:50.611Z,25.83
2019-02-04T02:16:19.600Z,30.87
2019-02-04T02:18:48.353Z,25.97
2019-02-04T02:21:17.236Z,24.63
2019-02-04T02:23:46.006Z,27.00
2019-02-04T02:26:14.826Z,27.20
2019-02-04T02:28:43.666Z,27.70
2019-02-04T02:31:12.646Z,23.67
2019-02-04T02:33:41.609Z,22.60
2019-02-04T02:36:10.354Z,25.73
2019-02-04T02:38:39.183Z,29.07
2019-02-04T02:41:08.024Z,25.23
2019-02-04T02:43:37.093Z,28.90
2019-02-04T02:46:06.649Z,22.73
2019-02-04T02:48:35.479Z,24.50
2019-02-04T02:51:04.633Z,25.20
2019-02-04T02:53:33.672Z,34.20
2019-02-04T02:56:02.523Z,29.17
2019-02-04T02:58:31.273Z,25.93
2019-02-04T03:01:00.239Z,31.90
2019-02-04T03:03:29.003Z,29.33
2019-02-04T03:05:58.047Z,28.80
2019-02-04T03:08:26.973Z,26.87
2019-02-04T03:10:55.799Z,26.53
2019-02-04T03:13:24.670Z,28.43
2019-02-04T03:15:53.612Z,32.53
2019-02-04T03:18:22.535Z,29.67
2019-02-04T03:20:51.819Z,32.33
2019-02-04T03:23:21.484Z,31.93
2019-02-04T03:25:50.276Z,32.10
2019-02-04T03:28:19.007Z,36.03
2019-02-04T03:30:47.789Z,34.87
2019-02-04T03:33:16.905Z,35.80
2019-02-04T03:35:45.852Z,35.97
2019-02-04T03:38:15.368Z,34.37
2019-02-04T03:40:44.095Z,42.60
2019-02-04T03:43:13.088Z,36.37
2019-02-04T03:45:42.061Z,38.20
2019-02-04T03:48:10.945Z,39.67
2019-02-04T03:50:39.695Z,36.13
2019-02-04T03:53:08.638Z,35.30
2019-02-04T03:55:37.385Z,38.40
2019-02-04T03:58:06.431Z,33.50
2019-02-04T04:00:37.284Z,33.30
2019-02-04T04:03:06.956Z,32.83
2019-02-04T04:05:35.677Z,31.80
2019-02-04T04:08:04.559Z,34.27
2019-02-04T04:10:33.436Z,31.90
2019-02-04T04:13:02.165Z,33.93
2019-02-04T04:15:30.948Z,30.20
2019-02-04T04:18:00.437Z,31.40
2019-02-04T04:20:29.231Z,28.90
2019-02-04T04:22:58.053Z,31.90
2019-02-04T04:25:30.108Z,29.50
2019-02-04T04:27:58.972Z,25.33
2019-02-04T04:30:28.148Z,28.37
2019-02-04T04:32:57.557Z,29.30
2019-02-04T04:35:26.537Z,27.97
2019-02-04T04:37:55.577Z,31.23
2019-02-04T04:40:24.319Z,28.10
2019-02-04T04:42:53.503Z,30.33
2019-02-04T04:45:23.444Z,26.97
2019-02-04T04:47:52.803Z,27.20
2019-02-04T04:50:21.837Z,32.67
2019-02-04T04:52:50.782Z,29.10
2019-02-04T04:55:22.953Z,26.03
2019-02-04T04:57:52.139Z,26.33
2019-02-04T05:00:26.479Z,26.50
2019-02-04T05:02:55.380Z,24.43
2019-02-04T05:05:24.122Z,24.93
2019-02-04T05:07:53.433Z,24.73
2019-02-04T05:10:22.294Z,24.13
2019-02-04T05:12:51.179Z,24.17
2019-02-04T05:15:22.854Z,25.33
2019-02-04T05:17:52.660Z,21.63
2019-02-04T05:20:22.691Z,21.40
2019-02-04T05:22:51.999Z,25.73
2019-02-04T05:25:20.843Z,20.07
2019-02-04T05:27:50.076Z,20.60
2019-02-04T05:30:21.516Z,19.37
2019-02-04T05:32:50.508Z,21.57
2019-02-04T05:35:19.383Z,20.57
2019-02-04T05:37:48.172Z,19.87
2019-02-04T05:40:17.347Z,17.97
2019-02-04T05:42:46.907Z,20.90
2019-02-04T05:45:18.053Z,20.67
2019-02-04T05:47:47.123Z,16.53
2019-02-04T05:50:18.420Z,20.90
2019-02-04T05:52:48.359Z,18.77
2019-02-04T05:55:19.131Z,17.97
2019-02-04T05:57:48.211Z,18.33
2019-02-04T06:00:28.004Z,20.57
2019-02-04T06:02:56.844Z,17.60
2019-02-04T06:05:26.390Z,18.03
2019-02-04T06:07:55.330Z,18.83
2019-02-04T06:10:24.185Z,18.13
2019-02-04T06:12:52.954Z,18.70
2019-02-04T06:15:21.831Z,17.07
2019-02-04T06:17:50.693Z,15.13
2019-02-04T06:20:21.086Z,13.80
2019-02-04T06:22:49.960Z,16.37
2019-02-04T06:25:18.923Z,16.63
2019-02-04T06:27:47.994Z,13.17
2019-02-04T06:30:17.405Z,13.50
2019-02-04T06:32:46.191Z,14.97
2019-02-04T06:35:15.538Z,13.93
2019-02-04T06:37:46.953Z,14.43
2019-02-04T06:40:15.873Z,13.70
2019-02-04T06:42:44.678Z,17.40
2019-02-04T06:45:14.708Z,13.27
2019-02-04T06:47:43.905Z,17.63
2019-02-04T06:50:16.092Z,11.87
2019-02-04T06:52:44.942Z,13.77
2019-02-04T06:55:20.337Z,14.67
2019-02-04T06:57:49.462Z,13.97
2019-02-04T07:00:18.665Z,14.63
2019-02-04T07:02:47.886Z,16.27
2019-02-04T07:05:17.421Z,14.27
2019-02-04T07:07:46.592Z,15.47
2019-02-04T07:10:20.098Z,13.57
2019-02-04T07:12:48.972Z,13.47
2019-02-04T07:15:19.021Z,12.23
2019-02-04T07:17:47.930Z,13.40
2019-02-04T07:20:20.572Z,13.90
2019-02-04T07:22:49.479Z,13.33
2019-02-04T07:25:19.488Z,11.97
2019-02-04T07:27:48.262Z,14.03
2019-02-04T07:30:20.948Z,12.47
2019-02-04T07:32:51.384Z,11.07
2019-02-04T07:35:20.656Z,14.13
2019-02-04T07:37:50.002Z,15.20
2019-02-04T07:40:21.831Z,12.63
2019-02-04T07:42:50.836Z,10.60
2019-02-04T07:45:20.389Z,9.90
2019-02-04T07:47:50.747Z,9.17
2019-02-04T07:50:19.565Z,8.97
2019-02-04T07:52:48.417Z,9.20
2019-02-04T07:55:17.521Z,11.03
2019-02-04T07:57:46.305Z,9.33
2019-02-04T08:00:23.099Z,9.37
2019-02-04T08:02:53.719Z,10.30
2019-02-04T08:05:22.892Z,11.17
2019-02-04T08:07:52.372Z,10.03
2019-02-04T08:10:21.320Z,9.23
2019-02-04T08:13:00.551Z,9.03
2019-02-04T08:15:24.340Z,9.73
2019-02-04T08:17:53.299Z,11.07
2019-02-04T08:20:22.848Z,10.73
2019-02-04T08:22:51.824Z,9.73
2019-02-04T08:25:20.635Z,10.87
2019-02-04T08:27:49.716Z,10.20
2019-02-04T08:30:22.125Z,11.13
2019-02-04T08:32:51.740Z,11.10
2019-02-04T08:35:20.597Z,9.97
2019-02-04T08:37:49.684Z,9.33
2019-02-04T08:40:18.808Z,9.97
2019-02-04T08:42:47.746Z,9.27
2019-02-04T08:45:17.124Z,9.27
2019-02-04T08:47:45.996Z,8.47
2019-02-04T08:50:18.280Z,11.43
2019-02-04T08:52:47.328Z,8.17
2019-02-04T08:55:17.657Z,8.27
2019-02-04T08:57:46.629Z,8.93
2019-02-04T09:00:18.916Z,9.20
2019-02-04T09:02:48.816Z,7.83
2019-02-04T09:05:18.368Z,9.60
2019-02-04T09:07:48.027Z,8.43
2019-02-04T09:10:22.715Z,8.30
2019-02-04T09:12:52.478Z,8.03
2019-02-04T09:15:21.678Z,7.73
2019-02-04T09:17:50.530Z,7.90
2019-02-04T09:20:19.927Z,10.27
2019-02-04T09:22:48.959Z,7.03
2019-02-04T09:25:18.169Z,7.40
2019-02-04T09:27:47.185Z,8.90
2019-02-04T09:30:20.037Z,7.30
2019-02-04T09:32:49.225Z,6.97
2019-02-04T09:35:19.256Z,7.93
2019-02-04T09:37:48.192Z,7.70
2019-02-04T09:40:37.924Z,8.27
2019-02-04T09:43:07.525Z,8.43
2019-02-04T09:45:36.479Z,9.00
2019-02-04T09:48:09.652Z,10.50
2019-02-04T09:50:38.770Z,9.23
2019-02-04T09:53:07.847Z,7.67
2019-02-04T09:55:38.977Z,9.97
2019-02-04T09:58:09.842Z,7.60
2019-02-04T10:00:38.810Z,10.43
2019-02-04T10:03:08.029Z,8.53
2019-02-04T10:05:37.266Z,7.90
2019-02-04T10:08:06.481Z,11.40
2019-02-04T10:10:36.561Z,8.63
2019-02-04T10:13:06.073Z,13.40
2019-02-04T10:15:38.430Z,7.93
2019-02-04T10:18:10.812Z,9.37
2019-02-04T10:20:40.212Z,7.23
2019-02-04T10:23:09.613Z,8.03
2019-02-04T10:25:41.634Z,8.83
2019-02-04T10:28:13.433Z,7.40
2019-02-04T10:30:42.492Z,10.00
2019-02-04T10:33:11.778Z,9.67
2019-02-04T10:35:41.049Z,9.13
2019-02-04T10:38:10.017Z,8.40
2019-02-04T10:40:39.079Z,8.17
2019-02-04T10:43:08.087Z,7.73
2019-02-04T10:45:36.954Z,9.70
2019-02-04T10:48:06.453Z,9.77
2019-02-04T10:50:45.657Z,7.93
2019-02-04T10:53:10.727Z,8.40
2019-02-04T10:55:40.649Z,8.57
2019-02-04T10:58:13.356Z,7.30
2019-02-04T11:00:43.793Z,6.43
2019-02-04T11:03:13.040Z,8.40
2019-02-04T11:05:42.570Z,10.07
2019-02-04T11:08:21.663Z,7.77
2019-02-04T11:10:50.875Z,7.63
2019-02-04T11:13:19.793Z,6.23
2019-02-04T11:15:48.944Z,5.73
2019-02-04T11:18:18.175Z,6.33
2019-02-04T11:20:57.878Z,8.27
2019-02-04T11:23:19.023Z,8.93
2019-02-04T11:25:47.983Z,7.17
2019-02-04T11:28:17.411Z,6.43
2019-02-04T11:33:28.989Z,5.30
2019-02-04T11:35:58.033Z,6.73
2019-02-04T11:38:27.008Z,6.83
2019-02-04T11:40:56.190Z,7.63
2019-02-04T11:43:25.169Z,5.70
2019-02-04T11:45:55.090Z,5.03
2019-02-04T11:48:24.607Z,4.70
2019-02-04T11:50:53.565Z,6.57
2019-02-04T11:53:32.269Z,5.77
2019-02-04T11:55:53.136Z,6.10
2019-02-04T11:58:22.156Z,7.30
2019-02-04T12:00:51.473Z,6.10
2019-02-04T12:03:20.570Z,7.83
2019-02-04T12:05:49.361Z,7.80
2019-02-04T12:08:22.341Z,5.80
2019-02-04T12:11:05.561Z,4.87
2019-02-04T12:13:34.563Z,5.27
2019-02-04T12:16:03.467Z,5.33
2019-02-04T12:18:32.228Z,6.83
2019-02-04T12:21:01.371Z,5.00
2019-02-04T12:23:30.803Z,7.47
2019-02-04T12:25:59.535Z,4.30
2019-02-04T12:28:28.402Z,5.17
2019-02-04T12:30:58.194Z,4.03
2019-02-04T12:33:27.885Z,5.27
2019-02-04T12:35:57.289Z,4.00
2019-02-04T12:38:26.030Z,4.50
2019-02-04T12:40:55.160Z,6.13
2019-02-04T12:43:24.083Z,6.13
2019-02-04T12:45:53.142Z,4.60
2019-02-04T12:48:24.207Z,5.80
2019-02-04T12:50:53.330Z,5.07
2019-02-04T12:53:22.151Z,7.37
2019-02-04T12:55:51.195Z,6.40
2019-02-04T12:58:20.134Z,4.53
2019-02-04T13:00:49.180Z,4.63
2019-02-04T13:03:18.152Z,4.53
2019-02-04T13:05:53.785Z,6.00
2019-02-04T13:08:23.315Z,7.53
2019-02-04T13:10:52.693Z,6.10
2019-02-04T13:13:23.749Z,4.80
2019-02-04T13:15:52.680Z,5.63
2019-02-04T13:18:21.453Z,6.00
2019-02-04T13:20:50.389Z,4.17
2019-02-04T13:23:19.196Z,6.17
2019-02-04T13:25:48.041Z,6.07
2019-02-04T13:28:21.301Z,4.60
2019-02-04T13:30:50.716Z,6.10
2019-02-04T13:33:20.712Z,5.27
2019-02-04T13:35:49.518Z,4.97
2019-02-04T13:38:19.234Z,5.43
2019-02-04T13:40:48.050Z,4.20
2019-02-04T13:43:16.949Z,4.57
2019-02-04T13:45:46.268Z,3.90
2019-02-04T13:48:15.373Z,6.33
2019-02-04T13:50:44.456Z,8.53
2019-02-04T13:53:13.828Z,3.77
2019-02-04T13:55:44.596Z,4.73
2019-02-04T13:58:13.397Z,4.67
2019-02-04T14:00:42.515Z,4.60
2019-02-04T14:03:12.494Z,4.37
2019-02-04T14:05:41.414Z,5.20
2019-02-04T14:08:10.359Z,6.57
2019-02-04T14:10:46.088Z,6.80
2019-02-04T14:13:13.988Z,5.63
2019-02-04T14:15:43.447Z,5.40
2019-02-04T14:18:12.565Z,5.67
2019-02-04T14:20:42.452Z,4.07
2019-02-04T14:23:11.257Z,4.17
2019-02-04T14:25:40.385Z,5.67
2019-02-04T14:28:09.666Z,4.27
2019-02-04T14:30:39.185Z,4.63
2019-02-04T14:33:08.448Z,5.33
2019-02-04T14:35:37.369Z,5.90
2019-02-04T14:38:08.369Z,4.23
2019-02-04T14:40:39.144Z,4.93
2019-02-04T14:43:16.316Z,6.20
2019-02-04T14:46:26.226Z,4.30
2019-02-04T14:49:20.842Z,4.07
2019-02-04T14:52:21.464Z,4.30
2019-02-04T14:55:15.299Z,3.97
2019-02-04T14:58:21.922Z,5.80
2019-02-04T15:01:31.069Z,6.17
2019-02-04T15:04:20.125Z,4.50
2019-02-04T15:07:41.009Z,3.43
2019-02-04T15:10:20.378Z,3.30
2019-02-04T15:13:16.178Z,3.97
2019-02-04T15:16:07.292Z,4.87
2019-02-04T15:19:13.072Z,4.53
2019-02-04T15:22:33.140Z,5.23
2019-02-04T15:25:23.319Z,3.97
2019-02-04T15:28:42.958Z,3.50
2019-02-04T15:32:11.397Z,3.63
2019-02-04T15:35:36.582Z,3.70
2019-02-04T15:38:56.243Z,3.23
2019-02-04T15:41:54.136Z,2.90
2019-02-04T15:45:10.441Z,3.53
2019-02-04T15:48:05.493Z,4.00
2019-02-04T15:50:58.400Z,3.00
2019-02-04T15:53:27.224Z,2.70
2019-02-04T15:55:56.153Z,2.87
2019-02-04T15:58:25.125Z,3.77
2019-02-04T16:00:54.332Z,4.47
2019-02-04T16:03:23.114Z,2.53
2019-02-04T16:05:52.061Z,7.53
2019-02-04T16:08:20.942Z,4.13
2019-02-04T16:10:49.834Z,2.33
2019-02-04T16:13:18.641Z,3.77
2019-02-04T16:15:47.700Z,3.07
2019-02-04T16:18:16.634Z,2.77
2019-02-04T16:20:45.429Z,3.57
2019-02-04T16:23:14.497Z,3.30
2019-02-04T16:25:43.279Z,2.30
2019-02-04T16:28:12.069Z,2.10
2019-02-04T16:30:41.246Z,2.63
2019-02-04T16:33:10.178Z,3.73
2019-02-04T16:35:39.129Z,2.37
2019-02-04T16:38:08.347Z,3.37
2019-02-04T16:40:37.088Z,3.63
2019-02-04T16:43:06.291Z,2.03
2019-02-04T16:45:35.524Z,2.20
2019-02-04T16:48:04.884Z,2.17
2019-02-04T16:50:33.917Z,4.80
2019-02-04T16:53:10.506Z,2.10
2019-02-04T16:55:34.934Z,3.27
2019-02-04T16:58:04.047Z,2.60
2019-02-04T17:00:33.124Z,3.03
2019-02-04T17:03:02.227Z,1.80
2019-02-04T17:05:31.409Z,3.00
2019-02-04T17:08:00.351Z,3.43
2019-02-04T17:10:29.180Z,2.43
2019-02-04T17:12:58.491Z,3.07
2019-02-04T17:15:27.772Z,3.37
2019-02-04T17:17:56.510Z,3.07
2019-02-04T17:20:28.434Z,3.47
2019-02-04T17:23:22.368Z,3.03
2019-02-04T17:25:54.204Z,4.63
2019-02-04T17:28:29.981Z,3.40
2019-02-04T17:31:00.343Z,4.80
2019-02-04T17:33:45.003Z,1.73
2019-02-04T17:36:27.208Z,3.37
2019-02-04T17:38:58.541Z,2.70
2019-02-04T17:41:37.631Z,4.13
2019-02-04T17:44:08.480Z,2.70
2019-02-04T17:46:40.493Z,2.20
2019-02-04T17:49:10.293Z,3.03
2019-02-04T17:51:40.605Z,3.80
2019-02-04T17:54:26.798Z,3.50
2019-02-04T17:57:00.424Z,3.17
2019-02-04T17:59:42.036Z,3.93
2019-02-04T18:02:16.600Z,3.40
2019-02-04T18:04:47.449Z,2.17
2019-02-04T18:07:20.617Z,2.33
2019-02-04T18:09:51.853Z,2.10
2019-02-04T18:12:24.478Z,4.23
2019-02-04T18:14:54.697Z,3.43
2019-02-04T18:17:30.015Z,3.60
2019-02-04T18:20:02.523Z,4.53
2019-02-04T18:22:35.407Z,3.23
2019-02-04T18:25:06.406Z,2.73
2019-02-04T18:27:36.681Z,3.17
2019-02-04T18:30:08.576Z,3.60
2019-02-04T18:32:39.913Z,2.57
2019-02-04T18:35:23.664Z,3.93
2019-02-04T18:37:56.641Z,3.97
2019-02-04T18:40:28.196Z,2.73
2019-02-04T18:43:02.621Z,2.87
2019-02-04T18:45:36.899Z,3.00
2019-02-04T18:48:07.780Z,3.00
2019-02-04T18:50:39.753Z,3.40
2019-02-04T18:53:12.403Z,4.17
2019-02-04T18:55:48.987Z,4.17
2019-02-04T18:58:23.007Z,3.83
2019-02-04T19:00:54.274Z,2.30
2019-02-04T19:03:26.953Z,2.27
2019-02-04T19:06:02.555Z,2.77
2019-02-04T19:08:39.386Z,2.17
2019-02-04T19:11:14.562Z,3.03
2019-02-04T19:13:45.710Z,2.50
2019-02-04T19:16:16.796Z,3.10
2019-02-04T19:18:46.926Z,2.17
2019-02-04T19:21:21.126Z,2.47
2019-02-04T19:23:51.292Z,3.03
2019-02-04T19:26:22.335Z,2.07
2019-02-04T19:28:52.571Z,2.70
2019-02-04T19:31:27.558Z,2.30
2019-02-04T19:34:03.040Z,2.80
2019-02-04T19:36:32.830Z,2.90
2019-02-04T19:39:04.970Z,3.27
2019-02-04T19:41:35.200Z,3.57
2019-02-04T19:44:14.536Z,3.00
2019-02-04T19:46:46.509Z,2.43
2019-02-04T19:49:16.865Z,2.97
2019-02-04T19:51:46.539Z,3.13
2019-02-04T19:54:22.345Z,5.13
2019-02-04T19:56:53.199Z,3.43
2019-02-04T19:59:32.140Z,2.97
2019-02-04T20:02:07.870Z,2.67
2019-02-04T20:04:38.963Z,3.00
2019-02-04T20:07:11.242Z,3.53
2019-02-04T20:09:54.298Z,2.90
2019-02-04T20:12:25.950Z,2.13
2019-02-04T20:14:56.472Z,3.37
2019-02-04T20:17:26.831Z,2.67
2019-02-04T20:19:57.632Z,4.70
2019-02-04T20:22:34.558Z,3.50
2019-02-04T20:25:05.714Z,2.70
2019-02-04T20:27:36.349Z,3.83
2019-02-04T20:30:11.124Z,3.03
2019-02-04T20:32:41.199Z,3.50
2019-02-04T20:35:11.709Z,5.17
2019-02-04T20:37:42.156Z,3.00
2019-02-04T20:40:15.127Z,3.70
2019-02-04T20:42:47.696Z,4.27
2019-02-04T20:45:21.327Z,5.63
2019-02-04T20:47:52.955Z,3.93
2019-02-04T20:50:48.375Z,3.73
2019-02-04T20:53:20.779Z,3.93
2019-02-04T20:55:58.568Z,6.87
2019-02-04T20:58:40.725Z,3.87
2019-02-04T21:01:19.079Z,4.87
2019-02-04T21:03:53.551Z,3.40
2019-02-04T21:06:42.691Z,4.70
2019-02-04T21:09:15.008Z,3.83
2019-02-04T21:11:58.080Z,5.27
2019-02-04T21:14:28.292Z,3.33
2019-02-04T21:17:15.499Z,5.50
2019-02-04T21:19:48.859Z,4.23
2019-02-04T21:22:23.973Z,3.90
2019-02-04T21:25:03.610Z,4.13
2019-02-04T21:28:07.281Z,5.00
2019-02-04T21:30:51.781Z,5.63
2019-02-04T21:36:13.776Z,5.30
2019-02-04T21:38:48.080Z,4.97
2019-02-04T21:41:25.008Z,5.27
2019-02-04T21:43:57.389Z,5.60
2019-02-04T21:46:30.976Z,4.57
2019-02-04T21:49:18.419Z,5.03
2019-02-04T21:51:51.451Z,4.63
2019-02-04T21:54:40.395Z,4.20
2019-02-04T21:57:25.034Z,4.17
2019-02-04T22:00:18.876Z,3.77
2019-02-04T22:02:50.853Z,5.97
2019-02-04T22:05:28.606Z,5.43
2019-02-04T22:08:02.760Z,6.07
2019-02-04T22:10:50.671Z,6.37
2019-02-04T22:13:39.732Z,6.87
2019-02-04T22:16:31.061Z,4.60
2019-02-04T22:19:03.072Z,5.73
2019-02-04T22:21:52.095Z,5.53
2019-02-04T22:24:30.417Z,4.37
2019-02-04T22:27:03.136Z,5.77
2019-02-04T22:29:48.516Z,5.20
2019-02-04T22:32:24.389Z,4.03
2019-02-04T22:35:09.085Z,5.00
2019-02-04T22:37:49.779Z,6.30
2019-02-04T22:40:53.360Z,5.27
2019-02-04T22:43:38.767Z,7.97
2019-02-04T22:46:33.396Z,11.53
2019-02-04T22:49:24.790Z,9.77
2019-02-04T22:52:18.524Z,5.37
2019-02-04T22:55:32.057Z,6.60
2019-02-04T22:58:14.650Z,5.77
2019-02-04T23:04:36.509Z,4.63
2019-02-04T23:07:33.653Z,5.80
2019-02-04T23:13:22.834Z,5.33
2019-02-04T23:16:20.433Z,4.87
2019-02-04T23:19:12.503Z,5.30
2019-02-04T23:22:18.313Z,4.80
2019-02-04T23:25:10.182Z,4.80
2019-02-04T23:28:11.397Z,5.97
2019-02-04T23:31:10.364Z,5.47
2019-02-04T23:34:00.893Z,5.20
2019-02-04T23:36:51.177Z,4.83
2019-02-04T23:39:36.956Z,5.60
2019-02-04T23:46:03.759Z,5.80
2019-02-04T23:49:05.691Z,5.50
2019-02-04T23:52:35.425Z,4.63
2019-02-04T23:57:47.887Z,4.83
